Terminal Aerodrome Forecast
Issued by NWS

Home | Current Version | Previous Version | Text Only | Print | Product List | Glossary On
Versions: 1 2 3 4 5 6 7 8 9 10 11 12 13 14 15 16 17 18 19 20 21 22 23 24 25 26
000
FTUS43 KFGF 052031 AAA
TAFDVL
TAF AMD
KDVL 052031Z 0521/0618 07007KT P6SM OVC005
      TEMPO 0521/0523 3/4SM -SN OVC003
     FM060100 01012KT 3/4SM -SN OVC008
     FM060500 34016G24KT 1/2SM SN OVC003
     FM061200 31022G30KT 3SM -SN BLSN OVC010
     FM061600 31022G32KT 3SM BLSN OVC015=

USA.gov is the U.S. government's official web portal to all federal, state and local government web resources and services.